Time;durP1;ratioP1;P1;durP2;ratioP2;P2;SDS_P1;SDS_P2;PMS_P1;PMS_P2;Temp;Humidity;BMP_temperature;BMP_pressure;BME280_temperature;BME280_humidity;BME280_pressure;Samples;Min_cycle;Max_cycle;Signal;HPM_P1;HPM_P2
2024/03/30 00:00:47;;;;;;;24.05;14.95;;;9.20;99.90;;;;;;5011627;28;20209;-91
2024/03/30 00:03:12;;;;;;;27.75;15.57;;;9.10;99.90;;;;;;5018000;28;20034;-90
2024/03/30 00:05:38;;;;;;;26.45;16.25;;;9.00;99.90;;;;;;5028695;28;20037;-92
2024/03/30 00:08:04;;;;;;;23.98;15.07;;;9.00;99.90;;;;;;5025475;28;20030;-93
2024/03/30 00:10:30;;;;;;;25.67;14.05;;;9.00;99.90;;;;;;5021344;28;20094;-91
2024/03/30 00:12:56;;;;;;;26.55;15.27;;;8.90;99.90;;;;;;5014453;28;20046;-91
2024/03/30 00:15:22;;;;;;;27.08;15.43;;;8.70;99.90;;;;;;5016260;28;20104;-91
2024/03/30 00:17:48;;;;;;;24.70;15.13;;;8.70;99.90;;;;;;5005357;28;20141;-91
2024/03/30 00:20:13;;;;;;;26.05;15.95;;;8.70;99.90;;;;;;5008075;28;20472;-91
2024/03/30 00:22:40;;;;;;;30.60;17.27;;;8.70;99.90;;;;;;5017505;28;20025;-91
2024/03/30 00:25:06;;;;;;;29.02;16.30;;;8.70;99.90;;;;;;5017075;28;20044;-91
2024/03/30 00:27:32;;;;;;;26.98;16.15;;;8.70;99.90;;;;;;5015685;28;20022;-91
2024/03/30 00:29:57;;;;;;;25.90;15.80;;;8.70;99.90;;;;;;5014386;28;20041;-91
2024/03/30 00:32:23;;;;;;;23.80;14.27;;;8.60;99.90;;;;;;5007400;28;20022;-92
2024/03/30 00:34:49;;;;;;;28.13;16.75;;;8.60;99.90;;;;;;5018310;28;20026;-92
2024/03/30 00:37:14;;;;;;;27.92;15.77;;;8.60;99.90;;;;;;5017997;28;20904;-90
2024/03/30 00:39:40;;;;;;;26.15;14.30;;;8.60;99.90;;;;;;5017957;28;20018;-93
2024/03/30 00:42:05;;;;;;;26.17;15.15;;;8.50;99.90;;;;;;5017997;28;20036;-94
2024/03/30 00:44:32;;;;;;;22.92;14.02;;;8.50;99.90;;;;;;5017998;28;20018;-91
2024/03/30 00:46:58;;;;;;;26.65;15.93;;;8.40;99.90;;;;;;5016880;28;20018;-91
2024/03/30 00:49:23;;;;;;;25.45;14.23;;;8.40;99.90;;;;;;5009643;28;20108;-90
2024/03/30 00:51:49;;;;;;;29.48;17.25;;;8.40;99.90;;;;;;5018309;28;20132;-91
2024/03/30 00:54:15;;;;;;;26.73;15.32;;;8.40;99.90;;;;;;5017187;28;20026;-91
2024/03/30 00:56:41;;;;;;;30.77;16.88;;;8.40;99.90;;;;;;5017399;28;20054;-91
2024/03/30 00:59:06;;;;;;;25.10;14.50;;;8.30;99.90;;;;;;5015249;28;20045;-92
2024/03/30 01:01:32;;;;;;;29.23;16.60;;;8.40;99.90;;;;;;5011977;28;20030;-90
2024/03/30 01:03:57;;;;;;;25.80;15.90;;;8.40;99.90;;;;;;5009250;28;20097;-91
2024/03/30 01:06:24;;;;;;;27.00;16.17;;;8.30;99.90;;;;;;5011016;28;20026;-92
2024/03/30 01:08:50;;;;;;;23.75;16.30;;;8.30;99.90;;;;;;5017847;28;20026;-90
2024/03/30 01:11:16;;;;;;;27.75;15.38;;;8.30;99.90;;;;;;5010054;28;20034;-91
2024/03/30 01:13:42;;;;;;;30.80;15.98;;;8.30;99.90;;;;;;5016022;28;20026;-91
2024/03/30 01:16:10;;;;;;;35.92;17.63;;;8.30;99.90;;;;;;5007430;28;20031;-91
2024/03/30 01:18:36;;;;;;;29.35;16.25;;;8.30;99.90;;;;;;5010325;28;20030;-92
2024/03/30 01:21:02;;;;;;;31.05;17.65;;;8.30;99.90;;;;;;5015444;28;20506;-91
2024/03/30 01:23:28;;;;;;;35.30;17.27;;;8.40;99.90;;;;;;5017117;28;20026;-91
2024/03/30 01:25:58;;;;;;;27.95;15.57;;;8.30;99.90;;;;;;5014409;28;20038;-92
2024/03/30 01:28:25;;;;;;;33.58;17.45;;;8.30;99.90;;;;;;5005739;28;20022;-92
2024/03/30 01:30:51;;;;;;;30.73;17.63;;;8.40;99.90;;;;;;5015179;28;20344;-90
2024/03/30 01:33:17;;;;;;;41.90;15.93;;;8.40;99.90;;;;;;5019654;28;20030;-92
2024/03/30 01:35:43;;;;;;;34.67;16.55;;;8.40;99.90;;;;;;5021144;28;20026;-91
2024/03/30 01:38:09;;;;;;;36.42;16.52;;;8.30;99.90;;;;;;5006246;28;20113;-92
2024/03/30 01:40:35;;;;;;;47.58;16.90;;;8.20;99.90;;;;;;5020528;28;20052;-91
2024/03/30 01:43:03;;;;;;;36.70;16.15;;;8.10;99.90;;;;;;5021174;28;20026;-92
2024/03/30 01:45:34;;;;;;;32.75;17.27;;;8.20;99.90;;;;;;5021030;28;20018;-92
2024/03/30 01:48:03;;;;;;;43.45;16.10;;;8.20;99.90;;;;;;5020402;28;20105;-90
2024/03/30 01:50:31;;;;;;;36.40;15.95;;;8.20;99.90;;;;;;5020379;28;20105;-92
2024/03/30 01:52:59;;;;;;;28.55;14.77;;;8.30;99.90;;;;;;5012417;28;20042;-91
2024/03/30 01:55:25;;;;;;;;;;;8.30;99.90;;;;;;5021391;28;20028;-91
2024/03/30 01:57:52;;;;;;;41.25;13.30;;;8.30;99.90;;;;;;5020640;28;19905;-91
2024/03/30 02:00:18;;;;;;;30.25;15.88;;;8.20;99.90;;;;;;5017090;28;20112;-91
2024/03/30 02:02:45;;;;;;;38.67;14.88;;;8.30;99.90;;;;;;5018944;28;20030;-90
2024/03/30 02:05:12;;;;;;;32.25;14.50;;;8.30;99.90;;;;;;5013241;28;20030;-91
2024/03/30 02:07:41;;;;;;;38.47;16.02;;;8.20;99.90;;;;;;5020964;28;20018;-92
2024/03/30 02:10:08;;;;;;;71.50;15.65;;;8.20;99.90;;;;;;5010008;28;20030;-91
2024/03/30 02:12:34;;;;;;;28.67;13.07;;;8.20;99.90;;;;;;5013626;28;20021;-92
2024/03/30 02:14:59;;;;;;;43.17;15.90;;;8.20;99.90;;;;;;5020484;28;20041;-91
2024/03/30 02:17:25;;;;;;;35.85;14.70;;;8.20;99.90;;;;;;5020407;28;20021;-91
2024/03/30 02:19:56;;;;;;;34.47;14.45;;;8.20;99.90;;;;;;5021081;28;20029;-92
2024/03/30 02:22:21;;;;;;;47.90;16.38;;;8.30;99.90;;;;;;5018678;28;20022;-91
2024/03/30 02:24:47;;;;;;;39.53;14.98;;;8.20;99.90;;;;;;5014745;28;20060;-92
2024/03/30 02:27:12;;;;;;;36.80;14.02;;;8.20;99.90;;;;;;5003660;28;20382;-91
2024/03/30 02:29:40;;;;;;;94.15;17.25;;;8.20;99.90;;;;;;5022541;28;20100;-91
2024/03/30 02:32:06;;;;;;;82.88;17.85;;;8.30;99.90;;;;;;5020102;28;20511;-91
2024/03/30 02:34:32;;;;;;;45.00;15.90;;;8.30;99.90;;;;;;5013355;28;20448;-92
2024/03/30 02:36:58;;;;;;;48.75;18.08;;;8.20;99.90;;;;;;5019125;28;20037;-91
2024/03/30 02:39:24;;;;;;;35.55;16.95;;;8.30;99.90;;;;;;5019788;28;20065;-90
2024/03/30 02:41:50;;;;;;;50.30;18.73;;;8.30;99.90;;;;;;5017937;28;20081;-92
2024/03/30 02:44:15;;;;;;;46.30;18.13;;;8.30;99.90;;;;;;5018985;28;20099;-91
2024/03/30 02:46:41;;;;;;;38.30;17.55;;;8.30;99.90;;;;;;5018108;28;20159;-93
2024/03/30 02:49:07;;;;;;;41.30;18.45;;;8.40;99.90;;;;;;5019134;28;20030;-91
2024/03/30 02:51:33;;;;;;;46.40;19.20;;;8.40;99.90;;;;;;5019052;28;20036;-92
2024/03/30 02:53:59;;;;;;;43.85;19.98;;;8.40;99.90;;;;;;5015527;28;20113;-92
2024/03/30 02:56:24;;;;;;;51.97;20.33;;;8.40;99.90;;;;;;5011016;28;20046;-91
2024/03/30 02:58:50;;;;;;;45.40;18.55;;;8.50;99.90;;;;;;5019446;28;20018;-91
2024/03/30 03:01:16;;;;;;;34.35;17.67;;;8.50;99.90;;;;;;5008409;28;20022;-92
2024/03/30 03:03:41;;;;;;;46.17;18.05;;;8.40;99.90;;;;;;5018685;28;20484;-91
2024/03/30 03:06:07;;;;;;;57.97;17.60;;;8.50;99.90;;;;;;5018612;28;20095;-90
2024/03/30 03:08:33;;;;;;;58.47;17.40;;;8.40;99.90;;;;;;5012455;28;20040;-91
2024/03/30 03:10:58;;;;;;;47.20;17.98;;;8.50;99.90;;;;;;5015430;28;20037;-91
2024/03/30 03:13:24;;;;;;;51.63;16.33;;;8.50;99.90;;;;;;5018979;28;20077;-91
2024/03/30 03:15:49;;;;;;;48.38;17.05;;;8.40;99.90;;;;;;5019054;28;20060;-91
2024/03/30 03:18:15;;;;;;;37.30;15.05;;;8.50;99.90;;;;;;5017170;28;20034;-91
2024/03/30 03:20:41;;;;;;;40.90;15.07;;;8.40;99.90;;;;;;5003332;28;20029;-93
2024/03/30 03:23:07;;;;;;;66.70;17.25;;;8.30;99.90;;;;;;5016157;28;20042;-91
2024/03/30 03:25:32;;;;;;;56.80;17.55;;;8.30;99.90;;;;;;5017824;28;20041;-91
2024/03/30 03:27:58;;;;;;;37.95;17.30;;;8.30;99.90;;;;;;5019037;28;20037;-90
2024/03/30 03:30:24;;;;;;;43.38;16.40;;;8.30;99.90;;;;;;5019043;28;20022;-90
2024/03/30 03:32:50;;;;;;;40.03;14.32;;;8.30;99.90;;;;;;5019045;28;20025;-92
2024/03/30 03:35:15;;;;;;;33.95;14.68;;;8.30;99.90;;;;;;5014532;28;20097;-91
2024/03/30 03:37:41;;;;;;;35.85;13.43;;;8.30;99.90;;;;;;5019017;28;20026;-92
2024/03/30 03:40:07;;;;;;;45.35;13.32;;;8.20;99.90;;;;;;5017157;28;20061;-92
2024/03/30 03:42:33;;;;;;;29.30;12.63;;;8.20;99.90;;;;;;5012183;28;20377;-92
2024/03/30 03:44:58;;;;;;;35.80;13.05;;;8.20;99.90;;;;;;5004324;28;20027;-92
2024/03/30 03:47:24;;;;;;;29.67;12.10;;;8.20;99.90;;;;;;5018453;28;20523;-91
2024/03/30 03:49:49;;;;;;;27.55;12.77;;;8.20;99.90;;;;;;5018737;28;20484;-90
2024/03/30 03:52:15;;;;;;;27.33;12.23;;;8.20;99.90;;;;;;5017563;28;20048;-91
2024/03/30 03:54:40;;;;;;;27.10;11.65;;;8.20;99.90;;;;;;5018863;28;20022;-92
2024/03/30 03:57:06;;;;;;;37.80;11.68;;;8.20;99.90;;;;;;5010753;28;20268;-91
2024/03/30 03:59:32;;;;;;;28.90;12.13;;;8.20;99.90;;;;;;4995650;28;20031;-92
2024/03/30 04:01:58;;;;;;;28.25;10.77;;;8.20;99.90;;;;;;5013387;28;20033;-92
2024/03/30 04:04:24;;;;;;;25.52;10.10;;;8.10;99.90;;;;;;5015356;28;20049;-92
2024/03/30 04:06:49;;;;;;;29.23;11.00;;;8.00;99.90;;;;;;5012766;28;20117;-90
2024/03/30 04:09:17;;;;;;;22.73;11.55;;;8.00;99.90;;;;;;5017669;28;20050;-92
2024/03/30 04:11:43;;;;;;;22.27;10.70;;;8.00;99.90;;;;;;5004122;28;20025;-91
2024/03/30 04:14:09;;;;;;;30.13;9.70;;;8.10;99.90;;;;;;5001928;28;20102;-92
2024/03/30 04:16:34;;;;;;;27.30;12.80;;;8.00;99.90;;;;;;5000620;28;20018;-92
2024/03/30 04:19:00;;;;;;;30.98;10.73;;;8.10;99.90;;;;;;5001202;28;20023;-90
2024/03/30 04:21:27;;;;;;;34.42;12.30;;;8.00;99.90;;;;;;5009581;28;20083;-93
2024/03/30 04:23:53;;;;;;;26.48;10.60;;;8.10;99.90;;;;;;5010577;28;20033;-91
2024/03/30 04:26:19;;;;;;;30.92;11.32;;;8.10;99.90;;;;;;5001876;28;20026;-91
2024/03/30 04:28:45;;;;;;;36.00;12.18;;;8.10;99.90;;;;;;5007523;28;20034;-91
2024/03/30 04:31:11;;;;;;;38.00;12.30;;;8.10;99.90;;;;;;5014373;28;20459;-91
2024/03/30 04:33:37;;;;;;;97.97;14.98;;;8.10;99.90;;;;;;5015429;28;20026;-92
2024/03/30 04:36:06;;;;;;;30.85;11.25;;;8.10;99.90;;;;;;5008044;28;20373;-94
2024/03/30 04:38:32;;;;;;;33.88;11.63;;;8.10;99.90;;;;;;5009435;28;20578;-91
2024/03/30 04:41:02;;;;;;;84.25;16.05;;;8.10;99.90;;;;;;5012774;28;20026;-91
2024/03/30 04:43:28;;;;;;;49.58;15.48;;;8.10;99.90;;;;;;5016036;28;20022;-91
2024/03/30 04:45:55;;;;;;;32.17;12.82;;;8.10;99.90;;;;;;5010368;28;20068;-91
2024/03/30 04:48:22;;;;;;;58.63;15.18;;;8.10;99.90;;;;;;5010688;28;20022;-91
2024/03/30 04:50:47;;;;;;;46.30;13.23;;;8.10;99.90;;;;;;5009975;28;20032;-90
2024/03/30 04:53:16;;;;;;;52.33;15.82;;;8.10;99.90;;;;;;5015065;28;20034;-91
2024/03/30 04:55:49;;;;;;;43.53;13.60;;;8.10;99.90;;;;;;5016094;28;20097;-92
2024/03/30 04:58:15;;;;;;;45.28;14.90;;;8.20;99.90;;;;;;5014773;28;20077;-92
2024/03/30 05:00:41;;;;;;;33.78;13.57;;;8.20;99.90;;;;;;5003554;28;20076;-91
2024/03/30 05:03:07;;;;;;;45.78;14.70;;;8.20;99.90;;;;;;5006642;28;20029;-91
2024/03/30 05:05:32;;;;;;;56.53;14.15;;;8.20;99.90;;;;;;5002840;28;20036;-92
2024/03/30 05:07:58;;;;;;;45.17;14.10;;;8.30;99.90;;;;;;5012221;28;20036;-92
2024/03/30 05:10:23;;;;;;;58.50;16.58;;;8.30;99.90;;;;;;5014301;28;20038;-91
2024/03/30 05:12:49;;;;;;;47.17;12.95;;;8.20;99.90;;;;;;5010486;28;20037;-92
2024/03/30 05:15:14;;;;;;;33.40;12.48;;;8.30;99.90;;;;;;5019246;28;20022;-93
2024/03/30 05:17:40;;;;;;;44.83;14.48;;;8.30;99.90;;;;;;5017838;28;20109;-93
2024/03/30 05:23:15;;;;;;;66.88;14.38;;;8.40;99.90;;;;;;4981119;28;20019;-90
2024/03/30 05:25:41;;;;;;;62.35;14.32;;;8.40;99.90;;;;;;4979210;28;1092625;-92
2024/03/30 05:28:06;;;;;;;41.33;13.07;;;8.40;99.90;;;;;;5005035;28;20128;-91
2024/03/30 05:30:32;;;;;;;62.08;15.15;;;8.40;99.90;;;;;;5020141;28;20029;-92
2024/03/30 05:32:58;;;;;;;43.50;13.43;;;8.40;99.90;;;;;;5020119;28;20022;-93
2024/03/30 05:35:23;;;;;;;34.90;10.85;;;8.40;99.90;;;;;;5017618;28;20045;-92
2024/03/30 05:37:49;;;;;;;28.42;10.15;;;8.50;99.90;;;;;;5019234;28;20121;-93
2024/03/30 05:40:15;;;;;;;29.77;11.07;;;8.50;99.90;;;;;;5020897;28;20041;-93
2024/03/30 05:42:40;;;;;;;27.40;10.55;;;8.40;99.90;;;;;;5011189;28;20022;-91
2024/03/30 05:45:06;;;;;;;100.50;13.55;;;8.40;99.90;;;;;;5013020;28;20029;-93
2024/03/30 05:47:32;;;;;;;45.63;12.75;;;8.40;99.90;;;;;;5018840;28;20026;-91
2024/03/30 05:49:57;;;;;;;38.00;11.80;;;8.30;99.90;;;;;;5012674;28;20034;-92
2024/03/30 05:52:23;;;;;;;29.50;10.75;;;8.30;99.90;;;;;;5015058;28;20528;-92
2024/03/30 05:54:48;;;;;;;42.88;12.00;;;8.30;99.90;;;;;;5009621;28;20060;-92
2024/03/30 05:57:14;;;;;;;36.08;12.23;;;8.40;99.90;;;;;;5015190;28;20122;-90
2024/03/30 05:59:40;;;;;;;37.15;11.35;;;8.40;99.90;;;;;;5005665;28;20023;-92
2024/03/30 06:02:05;;;;;;;30.05;10.23;;;8.50;99.90;;;;;;5009097;28;20475;-93
2024/03/30 06:04:31;;;;;;;44.78;10.82;;;8.40;99.90;;;;;;5002005;28;20583;-92
2024/03/30 06:06:57;;;;;;;37.33;11.13;;;8.40;99.90;;;;;;5002721;28;20022;-91
2024/03/30 06:09:24;;;;;;;37.70;11.00;;;8.40;99.90;;;;;;5006951;28;20432;-92
2024/03/30 06:11:49;;;;;;;59.05;12.55;;;8.40;99.90;;;;;;5004016;28;20018;-92
2024/03/30 06:14:16;;;;;;;35.08;13.20;;;8.30;99.90;;;;;;5006810;28;20025;-92
2024/03/30 06:16:42;;;;;;;30.95;10.05;;;8.30;99.90;;;;;;5004966;28;20030;-92
2024/03/30 06:19:09;;;;;;;35.72;12.23;;;8.30;99.90;;;;;;5006087;28;20030;-92
2024/03/30 06:21:34;;;;;;;35.53;13.68;;;8.40;99.90;;;;;;5004716;28;20031;-92
2024/03/30 06:24:00;;;;;;;43.38;14.48;;;8.40;99.90;;;;;;5008474;28;20042;-92
2024/03/30 06:26:26;;;;;;;40.35;12.95;;;8.30;99.90;;;;;;5010495;28;20044;-91
2024/03/30 06:28:51;;;;;;;38.95;12.57;;;8.30;99.90;;;;;;5001372;28;20031;-94
2024/03/30 06:31:17;;;;;;;34.97;12.80;;;8.30;99.90;;;;;;5004954;28;20056;-92
2024/03/30 06:33:45;;;;;;;38.70;13.43;;;8.30;99.90;;;;;;5001217;28;20046;-91
2024/03/30 06:36:11;;;;;;;80.43;13.88;;;8.40;99.90;;;;;;5009531;28;20014;-93
2024/03/30 06:38:36;;;;;;;47.08;15.70;;;8.30;99.90;;;;;;5010469;28;20040;-94
2024/03/30 06:43:49;;;;;;;38.10;14.32;;;8.20;99.90;;;;;;5005145;28;20045;-92
2024/03/30 06:46:14;;;;;;;39.22;15.50;;;8.20;99.90;;;;;;5005210;28;20022;-92
2024/03/30 06:48:40;;;;;;;34.28;12.50;;;8.20;99.90;;;;;;5003262;28;20084;-92
2024/03/30 06:51:07;;;;;;;30.23;11.50;;;8.20;99.90;;;;;;5005418;28;20447;-93
2024/03/30 06:53:32;;;;;;;32.05;13.93;;;8.20;99.90;;;;;;5003433;28;20026;-91
2024/03/30 06:55:58;;;;;;;31.80;14.10;;;8.20;99.90;;;;;;5006134;28;20023;-91
2024/03/30 06:58:24;;;;;;;31.88;13.70;;;8.20;99.90;;;;;;5008509;28;20095;-93
2024/03/30 07:00:49;;;;;;;38.92;14.93;;;8.30;99.90;;;;;;4999832;28;20050;-94
2024/03/30 07:03:16;;;;;;;31.48;12.65;;;8.20;99.90;;;;;;5009197;28;20173;-92
2024/03/30 07:05:42;;;;;;;27.13;12.10;;;8.30;99.90;;;;;;5004660;28;20164;-92
2024/03/30 07:08:08;;;;;;;31.25;13.65;;;8.30;99.90;;;;;;5005826;28;20026;-92
2024/03/30 07:10:34;;;;;;;31.73;13.95;;;8.40;99.90;;;;;;5008400;28;20033;-92
2024/03/30 07:12:59;;;;;;;35.65;16.52;;;8.40;99.90;;;;;;5018910;28;20026;-92
2024/03/30 07:15:25;;;;;;;50.35;18.88;;;8.30;99.90;;;;;;5004601;28;20041;-91
2024/03/30 07:17:51;;;;;;;33.13;15.10;;;8.30;99.90;;;;;;5003599;28;20077;-92
2024/03/30 07:20:17;;;;;;;34.00;15.45;;;8.40;99.90;;;;;;5005706;28;20118;-92
2024/03/30 07:22:42;;;;;;;32.00;12.63;;;8.40;99.90;;;;;;5003931;28;20022;-92
2024/03/30 07:25:08;;;;;;;30.63;12.18;;;8.50;99.90;;;;;;5010827;28;20053;-92
2024/03/30 07:27:34;;;;;;;27.90;10.80;;;8.50;99.90;;;;;;4999707;28;20026;-91
2024/03/30 07:30:00;;;;;;;28.48;13.60;;;8.60;99.90;;;;;;5002482;28;20057;-92
2024/03/30 07:32:26;;;;;;;27.23;11.73;;;8.60;99.90;;;;;;5019073;28;20049;-92
2024/03/30 07:34:52;;;;;;;32.22;13.73;;;8.60;99.90;;;;;;5012785;28;20041;-91
2024/03/30 07:37:17;;;;;;;30.65;12.88;;;8.60;99.90;;;;;;5018948;28;20094;-90
2024/03/30 07:39:44;;;;;;;27.60;13.43;;;8.50;99.90;;;;;;5004908;28;20046;-91
2024/03/30 07:42:10;;;;;;;24.42;11.45;;;8.60;99.90;;;;;;5007130;28;20026;-91
2024/03/30 07:44:36;;;;;;;28.98;11.95;;;8.70;99.90;;;;;;5013247;28;20034;-92
2024/03/30 07:47:06;;;;;;;28.73;12.95;;;8.70;99.90;;;;;;5004407;28;20026;-92
2024/03/30 07:49:32;;;;;;;32.30;15.98;;;8.70;99.90;;;;;;5012365;28;20018;-93
2024/03/30 07:52:00;;;;;;;30.80;15.35;;;8.70;99.90;;;;;;5018777;28;20034;-93
2024/03/30 07:54:25;;;;;;;31.85;15.45;;;8.70;99.90;;;;;;5017543;28;20705;-91
2024/03/30 07:56:55;;;;;;;31.83;14.70;;;8.70;99.90;;;;;;5016634;28;20017;-93
2024/03/30 07:59:21;;;;;;;29.67;14.63;;;8.70;99.90;;;;;;5015224;28;20049;-92
2024/03/30 08:01:47;;;;;;;28.48;13.57;;;8.60;99.90;;;;;;5008546;28;20052;-92
2024/03/30 08:04:15;;;;;;;32.50;13.35;;;8.70;99.90;;;;;;5016565;28;20030;-92
2024/03/30 08:06:48;;;;;;;33.85;16.52;;;8.70;99.90;;;;;;5015903;28;20025;-92
2024/03/30 08:09:15;;;;;;;30.67;16.02;;;8.70;99.90;;;;;;5007960;28;20068;-92
2024/03/30 08:11:41;;;;;;;41.58;19.63;;;8.70;99.90;;;;;;5009682;28;20033;-92
2024/03/30 08:14:09;;;;;;;37.58;18.52;;;8.90;99.90;;;;;;5009090;28;20030;-92
2024/03/30 08:16:35;;;;;;;30.65;14.48;;;8.90;99.90;;;;;;5003238;28;20100;-92
2024/03/30 08:19:03;;;;;;;32.85;15.60;;;9.00;99.90;;;;;;5009001;28;20691;-93
2024/03/30 08:21:32;;;;;;;29.63;13.27;;;9.10;99.90;;;;;;4997908;28;20092;-92
2024/03/30 08:23:58;;;;;;;34.58;16.85;;;9.10;99.90;;;;;;4999353;28;20031;-92
2024/03/30 08:26:23;;;;;;;32.08;14.23;;;9.10;99.90;;;;;;5003887;28;20057;-92
2024/03/30 08:28:50;;;;;;;30.77;14.32;;;9.20;99.90;;;;;;5010632;28;20038;-91
2024/03/30 08:31:16;;;;;;;32.85;12.90;;;9.20;99.90;;;;;;5005746;28;20109;-90
2024/03/30 08:33:42;;;;;;;33.78;13.88;;;9.20;99.90;;;;;;5011224;28;20038;-93
2024/03/30 08:36:08;;;;;;;33.40;13.55;;;9.30;99.90;;;;;;5008050;28;20088;-92
2024/03/30 08:38:34;;;;;;;32.15;13.73;;;9.20;99.90;;;;;;5005293;28;20453;-89
2024/03/30 08:40:59;;;;;;;34.22;14.73;;;9.20;99.90;;;;;;5004482;28;20030;-92
2024/03/30 08:43:26;;;;;;;31.83;15.15;;;9.20;99.90;;;;;;4997190;28;20477;-92
2024/03/30 08:45:53;;;;;;;31.30;12.65;;;9.30;99.90;;;;;;5009796;28;20090;-90
2024/03/30 08:48:18;;;;;;;32.28;14.35;;;9.40;99.90;;;;;;5004162;28;20061;-91
2024/03/30 08:50:44;;;;;;;29.27;14.27;;;9.40;99.90;;;;;;5003018;28;20026;-92
2024/03/30 08:53:10;;;;;;;38.25;19.88;;;9.30;99.90;;;;;;5013133;28;20831;-92
2024/03/30 08:55:37;;;;;;;31.15;15.70;;;9.40;99.90;;;;;;4998063;28;20030;-91
2024/03/30 08:58:04;;;;;;;27.77;13.25;;;9.40;99.90;;;;;;5005186;28;20018;-92
2024/03/30 09:00:30;;;;;;;35.30;15.85;;;9.50;99.90;;;;;;5005958;28;20030;-91
2024/03/30 09:02:56;;;;;;;33.50;16.38;;;9.60;99.90;;;;;;5015855;28;20060;-94
2024/03/30 09:05:22;;;;;;;30.27;14.63;;;9.70;99.90;;;;;;5017587;28;20816;-92
2024/03/30 09:07:48;;;;;;;33.35;14.20;;;9.70;99.90;;;;;;5016874;28;20412;-92
2024/03/30 09:10:15;;;;;;;31.50;16.83;;;9.70;99.90;;;;;;5015255;28;20026;-92
2024/03/30 09:12:40;;;;;;;31.80;15.30;;;9.80;99.90;;;;;;5016105;28;20033;-92
2024/03/30 09:15:06;;;;;;;30.13;16.15;;;9.80;99.90;;;;;;5017503;28;20026;-92
2024/03/30 09:17:32;;;;;;;37.65;18.05;;;9.80;99.90;;;;;;5014938;28;20044;-90
2024/03/30 09:19:59;;;;;;;31.92;14.85;;;9.80;99.90;;;;;;5008596;28;20050;-92
2024/03/30 09:22:26;;;;;;;30.48;13.02;;;9.70;99.90;;;;;;5015369;28;20030;-92
2024/03/30 09:24:53;;;;;;;35.35;15.48;;;9.60;99.90;;;;;;5007781;28;20036;-92
2024/03/30 09:27:20;;;;;;;32.20;14.98;;;9.80;99.90;;;;;;5006258;28;20018;-92
2024/03/30 09:29:46;;;;;;;29.08;16.17;;;9.90;99.90;;;;;;5015957;28;20029;-93
2024/03/30 09:32:11;;;;;;;31.48;14.27;;;9.90;99.90;;;;;;5015023;28;20022;-93
2024/03/30 09:34:37;;;;;;;30.08;16.05;;;9.90;99.90;;;;;;5011099;28;20030;-92
2024/03/30 09:37:07;;;;;;;31.40;14.52;;;10.10;99.90;;;;;;5011860;28;20034;-91
2024/03/30 09:39:35;;;;;;;32.70;15.65;;;10.10;99.90;;;;;;5014785;28;20026;-92
2024/03/30 09:42:06;;;;;;;34.53;14.50;;;10.00;99.90;;;;;;5015324;28;20032;-93
2024/03/30 09:44:36;;;;;;;33.10;15.50;;;9.90;99.90;;;;;;5016687;28;20057;-92
2024/03/30 09:47:06;;;;;;;29.88;13.15;;;10.00;99.90;;;;;;5015696;28;20045;-91
2024/03/30 09:49:34;;;;;;;30.67;13.65;;;9.90;99.90;;;;;;5015806;28;20575;-92
2024/03/30 09:52:06;;;;;;;27.48;13.38;;;10.00;99.90;;;;;;5016476;28;20029;-91
2024/03/30 09:54:33;;;;;;;33.13;14.52;;;10.00;99.90;;;;;;5007975;28;20069;-92
2024/03/30 09:57:00;;;;;;;26.20;12.48;;;10.10;99.90;;;;;;5015770;28;20014;-92
2024/03/30 09:59:26;;;;;;;26.17;13.43;;;10.10;99.90;;;;;;5017126;28;20129;-92
2024/03/30 10:01:52;;;;;;;27.77;12.57;;;10.10;99.90;;;;;;5016859;28;20068;-92
2024/03/30 10:04:18;;;;;;;30.40;14.10;;;10.20;99.90;;;;;;5025555;28;20022;-92
2024/03/30 10:06:56;;;;;;;23.92;12.32;;;10.20;99.90;;;;;;5025801;28;20113;-91
2024/03/30 10:09:26;;;;;;;27.38;13.65;;;10.20;99.90;;;;;;5013518;28;20037;-92
2024/03/30 10:11:59;;;;;;;32.05;14.98;;;10.00;99.90;;;;;;5015039;28;20046;-92
2024/03/30 10:14:33;;;;;;;24.45;12.27;;;10.00;99.90;;;;;;5002069;28;20023;-93
2024/03/30 10:17:00;;;;;;;32.08;15.75;;;10.10;99.90;;;;;;5013297;28;20065;-92
2024/03/30 10:19:28;;;;;;;28.98;13.77;;;10.00;99.90;;;;;;5003245;28;20033;-91
2024/03/30 10:21:55;;;;;;;27.70;13.40;;;9.90;99.90;;;;;;5018340;28;20062;-91
2024/03/30 10:24:21;;;;;;;31.23;15.20;;;9.90;99.90;;;;;;5019234;28;20041;-91
2024/03/30 10:26:46;;;;;;;33.42;15.52;;;9.90;99.90;;;;;;5011939;28;20030;-91
2024/03/30 10:29:12;;;;;;;27.73;13.77;;;9.90;99.90;;;;;;5016662;28;20065;-92
2024/03/30 10:31:39;;;;;;;28.88;13.70;;;9.90;99.90;;;;;;5018129;28;20480;-92
2024/03/30 10:34:05;;;;;;;28.58;14.43;;;10.00;99.90;;;;;;5017586;28;20036;-93
2024/03/30 10:36:31;;;;;;;34.50;16.35;;;10.00;99.90;;;;;;5018504;28;20769;-92
2024/03/30 10:38:57;;;;;;;29.42;16.05;;;10.00;99.90;;;;;;5017513;28;20034;-91
2024/03/30 10:41:28;;;;;;;28.23;15.32;;;9.90;99.90;;;;;;5007569;28;20062;-94
2024/03/30 10:43:55;;;;;;;28.83;14.60;;;9.80;99.90;;;;;;5014050;28;20030;-92
2024/03/30 10:46:23;;;;;;;28.27;14.68;;;9.80;99.90;;;;;;5017457;28;20044;-92
2024/03/30 10:48:49;;;;;;;29.95;14.35;;;9.90;99.90;;;;;;5011437;28;20054;-91
2024/03/30 10:51:15;;;;;;;28.40;15.27;;;9.90;99.90;;;;;;5000846;28;20060;-91
2024/03/30 10:53:40;;;;;;;39.08;16.63;;;10.00;99.90;;;;;;5017910;28;20061;-92
2024/03/30 10:56:07;;;;;;;29.92;15.77;;;10.00;99.90;;;;;;5017773;28;20041;-92
2024/03/30 10:58:33;;;;;;;27.20;14.65;;;10.00;99.90;;;;;;5011676;28;20080;-92
2024/03/30 11:00:59;;;;;;;27.65;14.73;;;10.10;99.90;;;;;;5008069;28;20030;-92
2024/03/30 11:03:27;;;;;;;33.78;17.00;;;10.10;99.90;;;;;;5012602;28;20030;-92
2024/03/30 11:05:53;;;;;;;;;;;10.10;99.90;;;;;;5018555;28;20089;-91
2024/03/30 11:08:20;;;;;;;29.17;14.05;;;10.00;99.90;;;;;;5016995;28;20434;-92
2024/03/30 11:10:46;;;;;;;29.38;13.98;;;10.00;99.90;;;;;;5018267;28;20089;-90
2024/03/30 11:13:11;;;;;;;29.92;15.35;;;9.90;99.90;;;;;;5010761;28;20023;-91
2024/03/30 11:15:41;;;;;;;32.28;14.40;;;9.90;99.90;;;;;;5018164;28;20033;-92
2024/03/30 11:18:15;;;;;;;28.83;14.57;;;10.00;99.90;;;;;;5017721;28;20018;-91
2024/03/30 11:20:55;;;;;;;33.40;17.50;;;10.00;99.90;;;;;;5017545;28;20116;-93
2024/03/30 11:23:26;;;;;;;31.60;14.50;;;10.10;99.90;;;;;;5002496;28;20073;-90
2024/03/30 11:26:02;;;;;;;36.42;15.65;;;10.10;99.90;;;;;;5017550;28;20045;-91
2024/03/30 11:28:37;;;;;;;34.00;14.65;;;10.20;99.90;;;;;;5006755;28;20053;-92
2024/03/30 11:31:09;;;;;;;58.30;20.02;;;10.20;99.90;;;;;;5011157;28;20032;-92
2024/03/30 11:33:51;;;;;;;30.17;14.88;;;10.20;99.90;;;;;;5021264;28;20018;-91
2024/03/30 11:36:45;;;;;;;34.22;16.85;;;10.30;99.90;;;;;;5017785;28;20030;-91
2024/03/30 11:39:27;;;;;;;30.05;15.77;;;10.30;99.90;;;;;;5008898;28;20132;-91
2024/03/30 11:42:16;;;;;;;33.33;16.48;;;10.40;99.90;;;;;;5013387;28;20037;-91
2024/03/30 11:44:43;;;;;;;33.42;17.42;;;10.40;99.90;;;;;;5015769;28;20034;-92
2024/03/30 11:47:09;;;;;;;37.60;17.83;;;10.50;99.90;;;;;;5003200;28;20026;-91
2024/03/30 11:49:35;;;;;;;39.08;16.15;;;10.50;99.90;;;;;;5009089;28;20028;-92
2024/03/30 11:52:01;;;;;;;38.40;17.90;;;10.60;99.90;;;;;;5002643;28;20022;-90
2024/03/30 11:54:27;;;;;;;41.75;19.25;;;10.60;99.90;;;;;;4997625;28;20022;-91
2024/03/30 11:57:01;;;;;;;32.03;16.98;;;10.70;99.90;;;;;;5006541;28;20061;-91
2024/03/30 11:59:27;;;;;;;33.22;16.50;;;10.70;99.90;;;;;;5015297;28;20109;-92
2024/03/30 12:01:53;;;;;;;41.10;19.48;;;10.70;99.90;;;;;;5012193;28;20045;-92
2024/03/30 12:04:19;;;;;;;38.42;18.35;;;10.70;99.90;;;;;;5015379;28;20025;-92
2024/03/30 12:06:45;;;;;;;33.80;17.33;;;10.80;99.90;;;;;;5014081;28;20030;-91
2024/03/30 12:09:13;;;;;;;34.53;17.25;;;10.80;99.90;;;;;;5014479;28;20026;-92
2024/03/30 12:11:39;;;;;;;28.95;16.30;;;10.80;99.90;;;;;;5015133;28;20030;-92
2024/03/30 12:14:05;;;;;;;34.88;15.15;;;10.90;99.90;;;;;;5016567;28;20093;-92
2024/03/30 12:16:32;;;;;;;29.88;15.25;;;10.80;99.90;;;;;;5009771;28;20014;-92
2024/03/30 12:18:58;;;;;;;29.95;15.23;;;10.80;99.90;;;;;;5016629;28;20026;-91
2024/03/30 12:21:24;;;;;;;34.20;16.27;;;10.80;99.90;;;;;;5004839;28;20045;-92
2024/03/30 12:23:50;;;;;;;29.77;15.73;;;10.80;99.90;;;;;;5002806;28;20030;-92
2024/03/30 12:26:17;;;;;;;34.38;17.48;;;10.90;99.90;;;;;;5016236;28;20227;-92
2024/03/30 12:28:43;;;;;;;32.60;16.33;;;10.90;99.90;;;;;;5013116;28;20022;-92
2024/03/30 12:31:09;;;;;;;34.78;16.30;;;10.90;99.90;;;;;;5015282;28;20029;-91
2024/03/30 12:33:35;;;;;;;32.13;17.85;;;11.00;99.90;;;;;;5014900;28;20105;-91
2024/03/30 12:36:01;;;;;;;29.58;17.25;;;11.00;99.90;;;;;;5015721;28;20017;-91
2024/03/30 12:38:26;;;;;;;27.85;15.25;;;11.00;99.90;;;;;;4999789;28;20097;-91